Terminal Aerodrome Forecast
Issued by NWS Sioux Falls, SD

Home | Current Version | Previous Version | Graphics & Text | Print | Product List | Glossary On
Versions: 1 2 3 4 5 6 7 8 9 10 11 12 13 14 15 16 17 18 19 20 21 22 23 24 25 26 27
000
FTUS43 KFSD 012331
TAFSUX
TAF
KSUX 012331Z 0200/0224 30007KT P6SM SCT060
     FM020300 VRB03KT P6SM SKC
     FM021500 13010KT P6SM BKN140
     FM021800 16013G19KT P6SM BKN080=

USA.gov is the U.S. government's official web portal to all federal, state and local government web resources and services.